createdAt,value
2019-04-07T00:02:20.707Z,12.45
2019-04-07T00:05:11.896Z,11.85
2019-04-07T00:07:53.093Z,13.30
2019-04-07T00:10:40.185Z,12.20
2019-04-07T00:13:25.892Z,13.58
2019-04-07T00:16:11.223Z,12.82
2019-04-07T00:18:55.888Z,12.10
2019-04-07T00:21:40.971Z,14.13
2019-04-07T00:24:25.705Z,11.78
2019-04-07T00:27:10.533Z,12.95
2019-04-07T00:29:55.665Z,12.85
2019-04-07T00:32:41.375Z,12.07
2019-04-07T00:35:31.218Z,12.40
2019-04-07T00:38:13.921Z,14.13
2019-04-07T00:40:59.221Z,13.58
2019-04-07T00:43:44.657Z,14.58
2019-04-07T00:46:29.568Z,13.30
2019-04-07T00:49:15.062Z,13.35
2019-04-07T00:52:01.416Z,14.28
2019-04-07T00:54:46.968Z,15.18
2019-04-07T00:57:32.076Z,12.93
2019-04-07T01:00:18.171Z,12.30
2019-04-07T01:03:04.075Z,12.37
2019-04-07T01:05:49.931Z,12.23
2019-04-07T01:08:34.768Z,13.40
2019-04-07T01:11:20.143Z,15.18
2019-04-07T01:14:05.968Z,13.62
2019-04-07T01:16:52.882Z,13.60
2019-04-07T01:19:38.307Z,11.85
2019-04-07T01:22:23.432Z,13.18
2019-04-07T01:25:08.929Z,13.75
2019-04-07T01:27:54.445Z,15.72
2019-04-07T01:30:41.445Z,14.07
2019-04-07T01:33:26.731Z,13.38
2019-04-07T01:36:11.635Z,14.07
2019-04-07T01:38:56.530Z,13.55
2019-04-07T01:41:58.865Z,14.33
2019-04-07T01:45:02.764Z,14.03
2019-04-07T01:48:01.686Z,14.45
2019-04-07T01:51:05.651Z,14.23
2019-04-07T01:54:05.360Z,13.50
2019-04-07T01:57:09.290Z,13.05
2019-04-07T02:00:02.983Z,13.85
2019-04-07T02:02:56.946Z,16.82
2019-04-07T02:05:59.154Z,14.53
2019-04-07T02:08:48.028Z,13.93
2019-04-07T02:11:45.154Z,13.38
2019-04-07T02:14:32.463Z,14.73
2019-04-07T02:17:22.322Z,16.02
2019-04-07T02:20:14.774Z,13.58
2019-04-07T02:23:09.556Z,15.30
2019-04-07T02:26:00.926Z,15.48
2019-04-07T02:29:07.998Z,15.32
2019-04-07T02:32:06.114Z,15.30
2019-04-07T02:34:53.441Z,14.73
2019-04-07T02:37:46.761Z,14.20
2019-04-07T02:40:51.363Z,15.28
2019-04-07T02:43:39.022Z,14.47
2019-04-07T02:46:27.011Z,16.42
2019-04-07T02:49:33.822Z,15.45
2019-04-07T02:52:25.030Z,14.45
2019-04-07T02:55:29.902Z,16.20
2019-04-07T02:58:32.667Z,13.90
2019-04-07T03:01:26.482Z,14.80
2019-04-07T03:04:14.272Z,15.65
2019-04-07T03:07:02.565Z,16.35
2019-04-07T03:09:50.429Z,13.98
2019-04-07T03:12:41.412Z,14.30
2019-04-07T03:15:28.274Z,14.53
2019-04-07T03:18:26.593Z,15.72
2019-04-07T03:21:19.632Z,13.08
2019-04-07T03:24:09.421Z,14.13
2019-04-07T03:26:56.587Z,16.50
2019-04-07T03:29:53.934Z,15.65
2019-04-07T03:32:49.314Z,15.40
2019-04-07T03:35:42.326Z,14.70
2019-04-07T03:38:28.968Z,15.60
2019-04-07T03:41:16.245Z,14.15
2019-04-07T03:44:03.532Z,15.68
2019-04-07T03:46:59.870Z,15.60
2019-04-07T03:49:47.758Z,15.35
2019-04-07T03:52:37.602Z,15.15
2019-04-07T03:55:28.249Z,14.20
2019-04-07T03:58:16.238Z,16.32
2019-04-07T04:01:08.315Z,15.53
2019-04-07T04:04:02.172Z,15.80
2019-04-07T04:07:20.265Z,16.10
2019-04-07T04:10:01.120Z,14.78
2019-04-07T04:12:49.919Z,15.08
2019-04-07T04:15:38.200Z,15.50
2019-04-07T04:18:23.891Z,14.45
2019-04-07T04:21:09.151Z,15.63
2019-04-07T04:23:55.046Z,15.28
2019-04-07T04:26:40.026Z,14.90
2019-04-07T04:29:25.231Z,15.70
2019-04-07T04:32:10.628Z,16.30
2019-04-07T04:34:56.245Z,15.80
2019-04-07T04:37:48.174Z,15.95
2019-04-07T04:40:30.267Z,15.75
2019-04-07T04:43:15.674Z,15.90
2019-04-07T04:46:01.321Z,14.68
2019-04-07T04:48:47.295Z,13.40
2019-04-07T04:51:36.949Z,13.43
2019-04-07T04:54:19.658Z,12.75
2019-04-07T04:57:07.860Z,13.00
2019-04-07T04:59:52.632Z,14.15
2019-04-07T05:02:38.308Z,15.40
2019-04-07T05:05:24.378Z,15.03
2019-04-07T05:08:09.518Z,15.75
2019-04-07T05:10:54.912Z,16.60
2019-04-07T05:13:41.242Z,17.57
2019-04-07T05:16:27.578Z,18.30
2019-04-07T05:19:13.440Z,19.57
2019-04-07T05:21:59.866Z,20.57
2019-04-07T05:24:45.510Z,21.07
2019-04-07T05:27:30.405Z,23.42
2019-04-07T05:30:15.771Z,23.73
2019-04-07T05:33:00.951Z,24.63
2019-04-07T05:35:45.947Z,24.50
2019-04-07T05:38:31.159Z,25.88
2019-04-07T05:41:16.410Z,23.75
2019-04-07T05:44:02.547Z,25.52
2019-04-07T05:46:49.609Z,25.52
2019-04-07T05:49:34.581Z,25.08
2019-04-07T05:52:19.544Z,25.60
2019-04-07T05:55:04.532Z,26.73
2019-04-07T05:57:49.963Z,26.05
2019-04-07T06:00:35.187Z,25.30
2019-04-07T06:03:20.458Z,26.73
2019-04-07T06:06:05.854Z,24.52
2019-04-07T06:08:50.743Z,25.17
2019-04-07T06:11:36.248Z,25.10
2019-04-07T06:14:21.420Z,27.27
2019-04-07T06:17:07.324Z,26.75
2019-04-07T06:19:53.306Z,27.42
2019-04-07T06:22:38.811Z,28.35
2019-04-07T06:25:24.998Z,29.40
2019-04-07T06:28:10.788Z,30.15
2019-04-07T06:30:59.193Z,28.50
2019-04-07T06:33:45.824Z,28.70
2019-04-07T06:36:32.852Z,28.20
2019-04-07T06:39:19.752Z,29.05
2019-04-07T06:42:05.818Z,27.37
2019-04-07T06:44:52.173Z,28.07
2019-04-07T06:47:40.298Z,28.70
2019-04-07T06:50:43.912Z,28.50
2019-04-07T06:53:36.937Z,29.55
2019-04-07T06:56:24.311Z,32.23
2019-04-07T06:59:15.563Z,31.62
2019-04-07T07:02:05.527Z,31.85
2019-04-07T07:05:11.211Z,31.05
2019-04-07T07:08:10.170Z,29.48
2019-04-07T07:11:05.819Z,28.85
2019-04-07T07:14:09.599Z,29.30
2019-04-07T07:17:02.990Z,27.93
2019-04-07T07:19:57.465Z,29.23
2019-04-07T07:22:49.477Z,31.82
2019-04-07T07:25:34.924Z,33.38
2019-04-07T07:28:21.111Z,33.98
2019-04-07T07:31:06.251Z,30.88
2019-04-07T07:33:51.494Z,29.32
2019-04-07T07:36:37.052Z,30.02
2019-04-07T07:39:23.155Z,29.82
2019-04-07T07:42:10.619Z,29.82
2019-04-07T07:44:56.032Z,28.55
2019-04-07T07:47:41.595Z,28.85
2019-04-07T07:50:28.356Z,27.93
2019-04-07T07:53:13.556Z,26.20
2019-04-07T07:55:58.551Z,27.87
2019-04-07T07:58:43.951Z,28.05
2019-04-07T08:01:29.056Z,27.15
2019-04-07T08:04:15.172Z,26.93
2019-04-07T08:07:02.357Z,26.33
2019-04-07T08:09:48.036Z,27.25
2019-04-07T08:12:34.956Z,26.80
2019-04-07T08:15:25.508Z,26.15
2019-04-07T08:18:08.740Z,27.58
2019-04-07T08:20:54.409Z,24.10
2019-04-07T08:23:43.071Z,25.90
2019-04-07T08:26:26.366Z,25.32
2019-04-07T08:29:13.016Z,22.93
2019-04-07T08:31:59.148Z,23.90
2019-04-07T08:34:44.913Z,23.22
2019-04-07T08:37:30.787Z,22.00
2019-04-07T08:40:16.364Z,23.62
2019-04-07T08:43:01.419Z,21.90
2019-04-07T08:45:47.106Z,21.40
2019-04-07T08:48:32.284Z,21.90
2019-04-07T08:51:17.518Z,20.97
2019-04-07T08:54:04.568Z,21.00
2019-04-07T08:56:50.278Z,20.32
2019-04-07T08:59:35.444Z,19.67
2019-04-07T09:02:20.171Z,19.10
2019-04-07T09:05:09.120Z,19.25
2019-04-07T09:07:55.840Z,19.05
2019-04-07T09:10:49.166Z,19.42
2019-04-07T09:16:25.063Z,18.25
2019-04-07T09:19:25.218Z,18.35
2019-04-07T09:22:12.786Z,16.67
2019-04-07T09:25:03.437Z,18.52
2019-04-07T09:27:52.264Z,16.97
2019-04-07T09:30:56.342Z,17.23
2019-04-07T09:33:57.214Z,17.15
2019-04-07T09:36:59.185Z,15.50
2019-04-07T09:40:01.054Z,15.13
2019-04-07T09:42:47.120Z,16.02
2019-04-07T09:45:50.696Z,15.65
2019-04-07T09:48:53.060Z,14.25
2019-04-07T09:51:46.191Z,13.93
2019-04-07T09:54:53.831Z,15.30
2019-04-07T09:57:53.884Z,18.92
2019-04-07T10:00:44.300Z,21.37
2019-04-07T10:03:47.930Z,20.85
2019-04-07T10:06:39.334Z,20.43
2019-04-07T10:09:45.877Z,21.97
2019-04-07T10:12:39.233Z,22.17
2019-04-07T10:15:43.219Z,22.95
2019-04-07T10:18:46.755Z,22.95
2019-04-07T10:21:42.933Z,21.23
2019-04-07T10:24:30.413Z,22.87
2019-04-07T10:27:18.582Z,22.15
2019-04-07T10:30:13.655Z,21.97
2019-04-07T10:33:00.861Z,22.82
2019-04-07T10:36:04.906Z,22.32
2019-04-07T10:39:08.808Z,23.27
2019-04-07T10:42:02.527Z,21.85
2019-04-07T10:44:59.118Z,22.73
2019-04-07T10:47:48.682Z,19.50
2019-04-07T10:50:52.044Z,19.87
2019-04-07T10:53:56.270Z,19.25
2019-04-07T10:56:43.869Z,18.57
2019-04-07T10:59:42.814Z,19.50
2019-04-07T11:02:29.967Z,19.67
2019-04-07T11:05:36.222Z,18.00
2019-04-07T11:08:24.296Z,18.73
2019-04-07T11:11:18.056Z,18.90
2019-04-07T11:14:22.887Z,16.37
2019-04-07T11:17:19.398Z,16.77
2019-04-07T11:20:25.826Z,16.62
2019-04-07T11:23:15.606Z,17.67
2019-04-07T11:26:05.400Z,17.12
2019-04-07T11:28:52.551Z,18.12
2019-04-07T11:31:45.108Z,18.17
2019-04-07T11:34:41.432Z,17.80
2019-04-07T11:37:32.766Z,16.45
2019-04-07T11:40:41.934Z,16.93
2019-04-07T11:43:32.680Z,16.80
2019-04-07T11:46:36.536Z,16.93
2019-04-07T11:49:30.162Z,17.65
2019-04-07T11:52:23.578Z,17.10
2019-04-07T11:55:23.792Z,16.45
2019-04-07T11:58:17.752Z,15.72
2019-04-07T12:03:53.451Z,15.83
2019-04-07T12:06:39.702Z,15.43
2019-04-07T12:09:41.944Z,15.50
2019-04-07T12:12:49.433Z,15.15
2019-04-07T12:15:42.960Z,16.32
2019-04-07T12:18:38.759Z,15.03
2019-04-07T12:21:41.068Z,16.50
2019-04-07T12:24:46.268Z,15.38
2019-04-07T12:27:33.448Z,16.00
2019-04-07T12:30:37.927Z,15.75
2019-04-07T12:33:42.106Z,16.17
2019-04-07T12:36:30.734Z,16.62
2019-04-07T12:39:34.178Z,17.12
2019-04-07T12:42:21.413Z,15.70
2019-04-07T12:45:20.011Z,16.40
2019-04-07T12:48:11.308Z,18.37
2019-04-07T12:51:07.376Z,16.93
2019-04-07T12:54:00.367Z,16.57
2019-04-07T12:56:47.798Z,17.17
2019-04-07T12:59:47.007Z,15.85
2019-04-07T13:02:40.317Z,16.10
2019-04-07T13:05:39.536Z,17.00
2019-04-07T13:08:43.630Z,16.10
2019-04-07T13:11:37.459Z,16.57
2019-04-07T13:14:26.951Z,15.85
2019-04-07T13:17:23.455Z,15.23
2019-04-07T13:20:10.810Z,15.35
2019-04-07T13:22:58.733Z,15.75
2019-04-07T13:25:54.443Z,15.38
2019-04-07T13:28:53.281Z,14.85
2019-04-07T13:31:40.617Z,14.15
2019-04-07T13:34:31.133Z,13.22
2019-04-07T13:40:15.837Z,12.90
2019-04-07T13:43:12.303Z,14.38
2019-04-07T13:45:59.116Z,13.18
2019-04-07T13:48:49.537Z,13.03
2019-04-07T13:51:52.963Z,12.30
2019-04-07T13:54:56.947Z,12.07
2019-04-07T13:57:55.586Z,12.45
2019-04-07T14:00:57.350Z,11.43
2019-04-07T14:03:58.878Z,11.88
2019-04-07T14:09:34.160Z,10.28
2019-04-07T14:12:34.505Z,11.33
2019-04-07T14:15:28.122Z,10.75
2019-04-07T14:18:27.730Z,11.35
2019-04-07T14:21:21.461Z,10.88
2019-04-07T14:24:23.896Z,11.38
2019-04-07T14:27:12.151Z,10.75
2019-04-07T14:30:19.142Z,10.80
2019-04-07T14:33:18.361Z,10.82
2019-04-07T14:36:06.291Z,10.30
2019-04-07T14:38:56.012Z,10.82
2019-04-07T14:42:04.790Z,11.48
2019-04-07T14:44:50.036Z,10.53
2019-04-07T14:47:37.089Z,11.27
2019-04-07T14:50:25.236Z,9.88
2019-04-07T14:53:25.369Z,9.63
2019-04-07T14:56:12.510Z,10.28
2019-04-07T14:59:06.580Z,9.70
2019-04-07T15:01:55.696Z,9.40
2019-04-07T15:04:49.554Z,9.18
2019-04-07T15:07:36.698Z,8.98
2019-04-07T15:10:24.435Z,9.03
2019-04-07T15:13:14.368Z,9.28
2019-04-07T15:16:00.368Z,9.20
2019-04-07T15:18:46.763Z,8.50
2019-04-07T15:21:32.820Z,8.38
2019-04-07T15:24:18.695Z,9.05
2019-04-07T15:27:05.903Z,9.25
2019-04-07T15:29:51.398Z,8.20
2019-04-07T15:32:36.401Z,9.73
2019-04-07T15:35:23.340Z,9.20
2019-04-07T15:38:08.803Z,9.40
2019-04-07T15:40:54.407Z,9.13
2019-04-07T15:43:40.056Z,9.00
2019-04-07T15:46:25.699Z,9.75
2019-04-07T15:49:12.697Z,9.68
2019-04-07T15:51:57.720Z,9.63
2019-04-07T15:54:43.405Z,8.95
2019-04-07T15:57:29.049Z,8.25
2019-04-07T16:00:15.292Z,9.28
2019-04-07T16:03:00.762Z,7.80
2019-04-07T16:05:46.501Z,8.38
2019-04-07T16:08:32.014Z,7.83
2019-04-07T16:11:19.018Z,8.20
2019-04-07T16:14:08.517Z,8.40
2019-04-07T16:16:52.802Z,8.10
2019-04-07T16:19:42.524Z,7.87
2019-04-07T16:22:25.692Z,8.15
2019-04-07T16:25:12.149Z,8.13
2019-04-07T16:27:59.117Z,7.47
2019-04-07T16:30:48.529Z,7.47
2019-04-07T16:33:33.982Z,7.58
2019-04-07T16:36:18.428Z,8.40
2019-04-07T16:39:09.086Z,9.13
2019-04-07T16:41:53.458Z,7.60
2019-04-07T16:44:42.552Z,8.50
2019-04-07T16:47:29.266Z,8.70
2019-04-07T16:50:13.301Z,8.73
2019-04-07T16:53:02.899Z,9.15
2019-04-07T16:55:48.893Z,9.20
2019-04-07T16:58:35.347Z,7.67
2019-04-07T17:01:18.836Z,9.05
2019-04-07T17:04:04.091Z,9.85
2019-04-07T17:06:59.243Z,8.53
2019-04-07T17:09:36.680Z,8.78
2019-04-07T17:12:21.663Z,8.50
2019-04-07T17:15:07.845Z,8.78
2019-04-07T17:17:54.659Z,9.00
2019-04-07T17:20:39.755Z,7.95
2019-04-07T17:23:26.121Z,8.68
2019-04-07T17:26:11.636Z,9.38
2019-04-07T17:28:58.238Z,9.00
2019-04-07T17:31:44.383Z,8.85
2019-04-07T17:34:29.456Z,9.20
2019-04-07T17:37:15.083Z,8.73
2019-04-07T17:40:11.335Z,8.40
2019-04-07T17:42:57.419Z,8.73
2019-04-07T17:46:02.500Z,9.23
2019-04-07T17:48:56.752Z,9.03
2019-04-07T17:51:56.315Z,8.68
2019-04-07T17:55:00.278Z,8.60
2019-04-07T17:57:56.472Z,9.28
2019-04-07T18:00:49.354Z,9.20
2019-04-07T18:06:40.614Z,8.43
2019-04-07T18:09:30.988Z,9.20
2019-04-07T18:12:27.478Z,9.55
2019-04-07T18:15:31.575Z,8.93
2019-04-07T18:18:23.485Z,9.15
2019-04-07T18:21:13.300Z,9.23
2019-04-07T18:24:05.518Z,9.38
2019-04-07T18:27:12.570Z,9.33
2019-04-07T18:30:16.406Z,8.90
2019-04-07T18:33:19.286Z,8.60
2019-04-07T18:36:21.163Z,9.88
2019-04-07T18:39:26.011Z,10.18
2019-04-07T18:42:17.796Z,9.93
2019-04-07T18:45:12.168Z,9.25
2019-04-07T18:48:14.801Z,9.93
2019-04-07T18:51:02.936Z,10.18
2019-04-07T18:53:59.733Z,9.33
2019-04-07T18:57:03.963Z,10.45
2019-04-07T19:00:01.016Z,9.43
2019-04-07T19:02:46.114Z,9.50
2019-04-07T19:05:49.179Z,10.45
2019-04-07T19:08:39.189Z,11.18
2019-04-07T19:11:29.819Z,10.25
2019-04-07T19:14:40.135Z,9.70
2019-04-07T19:17:23.422Z,9.10
2019-04-07T19:20:26.378Z,9.58
2019-04-07T19:23:16.406Z,10.23
2019-04-07T19:26:18.548Z,9.88
2019-04-07T19:29:23.276Z,10.43
2019-04-07T19:32:13.464Z,9.50
2019-04-07T19:35:04.392Z,10.13
2019-04-07T19:41:13.105Z,10.65
2019-04-07T19:44:17.990Z,10.30
2019-04-07T19:47:08.830Z,11.30
2019-04-07T19:50:12.578Z,10.43
2019-04-07T19:53:10.175Z,10.18
2019-04-07T19:55:56.488Z,10.23
2019-04-07T19:58:47.013Z,10.23
2019-04-07T20:01:44.343Z,9.68
2019-04-07T20:04:32.720Z,11.25
2019-04-07T20:07:37.958Z,10.20
2019-04-07T20:10:38.016Z,11.08
2019-04-07T20:13:25.017Z,11.18
2019-04-07T20:16:18.148Z,11.33
2019-04-07T20:19:22.307Z,10.43
2019-04-07T20:22:27.127Z,14.45
2019-04-07T20:25:17.531Z,15.45
2019-04-07T20:28:20.188Z,17.50
2019-04-07T20:31:08.239Z,17.25
2019-04-07T20:34:02.247Z,15.95
2019-04-07T20:37:05.107Z,13.18
2019-04-07T20:39:53.231Z,17.70
2019-04-07T20:42:40.246Z,21.12
2019-04-07T20:45:32.467Z,25.60
2019-04-07T20:48:19.499Z,28.23
2019-04-07T20:51:19.077Z,21.73
2019-04-07T20:54:23.526Z,32.93
2019-04-07T20:57:22.357Z,26.68
2019-04-07T21:00:08.426Z,34.30
2019-04-07T21:03:15.288Z,33.30
2019-04-07T21:05:54.318Z,33.95
2019-04-07T21:11:56.712Z,30.00
2019-04-07T21:14:47.297Z,33.80
2019-04-07T21:17:50.236Z,29.90
2019-04-07T21:20:38.900Z,29.90
2019-04-07T21:23:30.065Z,30.25
2019-04-07T21:26:17.870Z,30.50
2019-04-07T21:29:10.555Z,31.93
2019-04-07T21:31:57.278Z,31.35
2019-04-07T21:35:03.089Z,33.20
2019-04-07T21:37:58.872Z,32.88
2019-04-07T21:41:01.899Z,28.32
2019-04-07T21:43:48.855Z,28.92
2019-04-07T21:46:52.056Z,31.42
2019-04-07T21:49:58.100Z,33.10
2019-04-07T21:52:53.142Z,30.68
2019-04-07T21:58:52.011Z,26.70
2019-04-07T22:01:46.266Z,26.05
2019-04-07T22:04:36.244Z,29.25
2019-04-07T22:07:35.628Z,26.80
2019-04-07T22:10:22.914Z,27.42
2019-04-07T22:13:09.546Z,27.73
2019-04-07T22:15:59.292Z,29.00
2019-04-07T22:18:41.857Z,27.65
2019-04-07T22:21:27.743Z,31.05
2019-04-07T22:24:13.115Z,30.82
2019-04-07T22:26:59.285Z,29.02
2019-04-07T22:29:44.952Z,30.50
2019-04-07T22:32:30.973Z,24.10
2019-04-07T22:35:16.888Z,29.25
2019-04-07T22:38:03.162Z,31.68
2019-04-07T22:40:49.968Z,29.82
2019-04-07T22:43:35.539Z,29.92
2019-04-07T22:46:24.597Z,27.15
2019-04-07T22:49:07.163Z,26.65
2019-04-07T22:51:56.096Z,34.20
2019-04-07T22:54:42.232Z,30.02
2019-04-07T22:57:29.187Z,27.73
2019-04-07T23:00:16.950Z,27.77
2019-04-07T23:03:04.198Z,32.05
2019-04-07T23:05:49.760Z,28.02
2019-04-07T23:08:36.979Z,30.27
2019-04-07T23:11:22.515Z,33.70
2019-04-07T23:14:07.508Z,31.90
2019-04-07T23:16:52.342Z,31.87
2019-04-07T23:19:37.808Z,33.50
2019-04-07T23:22:22.865Z,33.95
2019-04-07T23:25:09.914Z,33.67
2019-04-07T23:27:54.823Z,35.80
2019-04-07T23:30:40.709Z,29.70
2019-04-07T23:33:26.192Z,28.73
2019-04-07T23:36:11.766Z,32.55
2019-04-07T23:38:57.967Z,30.08
2019-04-07T23:41:43.546Z,31.52
2019-04-07T23:44:29.681Z,37.13
2019-04-07T23:47:15.256Z,40.03
2019-04-07T23:50:00.743Z,30.90
2019-04-07T23:52:45.901Z,36.25
2019-04-07T23:55:31.631Z,34.13
2019-04-07T23:58:16.943Z,33.18
